Weather at Saly-Joseph Aerodrome

Public forecast

Using degrees Celsius for public forecast. Weather courtesy of forecast.io.

Closest aviation weather report (METAR) to Saly-Joseph Aerodrome

Report is more than 6 hours old.

Closest report is Blaise Diagne International Airport, 12.8 nm (23.7 km) NNW.

2022/11/14 15:30 (retrieved 2 years ago)

GOBD 141530Z 35010KT 310V020 CAVOK 31/19 Q1012 NOSIG

Closest aviation forecast (TAF) to Saly-Joseph Aerodrome

Forecast is more than 12 hours old.

Closest forecast is Blaise Diagne International Airport, 12.8 nm (23.7 km) NNW.

2023/02/22 18:00 (retrieved 1 year ago)

TAF GOOY 221700Z 2218/2324 32018KT 8000 NSC TAF GOBD 221700Z 2218/2324 36018KT 8000 NSC